Time;durP1;ratioP1;P1;durP2;ratioP2;P2;SDS_P1;SDS_P2;PMS_P1;PMS_P2;Temp;Humidity;BMP_temperature;BMP_pressure;BME280_temperature;BME280_humidity;BME280_pressure;Samples;Min_cycle;Max_cycle;Signal;HPM_P1;HPM_P2
2022/04/28 00:01:45;;;;;;;18.35;7.18;;;;;;;7.45;65.27;102808.22;5022798;28;20044;-58
2022/04/28 00:04:10;;;;;;;16.73;7.20;;;;;;;7.35;65.66;102808.75;5017065;28;20354;-59
2022/04/28 00:06:36;;;;;;;15.23;7.00;;;;;;;7.36;65.56;102807.81;5022092;28;20064;-57
2022/04/28 00:09:01;;;;;;;15.27;7.35;;;;;;;7.33;66.18;102813.28;5021360;28;20108;-57
2022/04/28 00:11:26;;;;;;;14.07;6.90;;;;;;;7.36;65.95;102813.09;5026279;28;20064;-58
2022/04/28 00:13:51;;;;;;;15.13;6.90;;;;;;;7.35;65.69;102819.31;5013202;28;20034;-58
2022/04/28 00:16:16;;;;;;;15.38;7.07;;;;;;;7.25;68.75;102826.06;5012753;28;20064;-58
2022/04/28 00:18:42;;;;;;;15.05;6.72;;;;;;;7.29;67.83;102814.41;5016713;28;20034;-58
2022/04/28 00:21:07;;;;;;;13.05;6.90;;;;;;;7.22;67.50;102821.00;5021205;28;20033;-58
2022/04/28 00:23:32;;;;;;;16.42;6.78;;;;;;;7.23;66.87;102822.69;5021098;28;20046;-58
2022/04/28 00:25:58;;;;;;;14.85;7.35;;;;;;;7.09;67.10;102828.75;5010958;28;20048;-58
2022/04/28 00:28:23;;;;;;;14.90;7.13;;;;;;;7.15;68.65;102819.66;5014912;28;20061;-58
2022/04/28 00:30:49;;;;;;;14.55;7.50;;;;;;;7.18;68.37;102816.81;5013863;28;20400;-58
2022/04/28 00:33:14;;;;;;;12.95;6.70;;;;;;;7.11;67.94;102819.81;5019876;28;20034;-59
2022/04/28 00:35:40;;;;;;;17.10;7.35;;;;;;;7.05;68.13;102814.91;5012469;28;20125;-58
2022/04/28 00:38:05;;;;;;;15.55;6.95;;;;;;;6.89;68.07;102820.22;5018288;28;20030;-58
2022/04/28 00:40:31;;;;;;;15.27;7.50;;;;;;;6.90;68.80;102811.38;5018100;28;20514;-58
2022/04/28 00:43:18;;;;;;;16.30;7.53;;;;;;;6.90;68.58;102813.19;5016285;28;20175;-57
2022/04/28 00:45:41;;;;;;;14.88;7.30;;;;;;;6.85;69.34;102816.06;5013568;28;20096;-58
2022/04/28 00:50:53;;;;;;;16.40;7.22;;;;;;;6.79;69.12;102816.41;5018191;28;20100;-58
2022/04/28 00:53:19;;;;;;;15.07;7.22;;;;;;;6.73;68.52;102817.63;5019799;28;20025;-58
2022/04/28 00:55:44;;;;;;;15.27;7.38;;;;;;;6.71;68.25;102819.50;5020151;28;20057;-58
2022/04/28 00:58:10;;;;;;;18.80;7.40;;;;;;;6.65;68.03;102814.59;5013913;28;20033;-58
2022/04/28 01:00:37;;;;;;;15.68;7.50;;;;;;;6.51;68.33;102802.16;5011890;28;20029;-58
2022/04/28 01:03:02;;;;;;;19.77;7.70;;;;;;;6.58;69.14;102806.16;5008048;28;20033;-58
2022/04/28 01:05:28;;;;;;;16.15;7.72;;;;;;;6.55;69.16;102801.03;5014261;28;20033;-58
2022/04/28 01:07:53;;;;;;;16.50;7.50;;;;;;;6.63;68.98;102808.53;5024185;28;20040;-58
2022/04/28 01:10:19;;;;;;;15.05;7.78;;;;;;;6.57;68.85;102809.72;5017181;28;20042;-58
2022/04/28 01:12:44;;;;;;;15.95;7.32;;;;;;;6.49;68.13;102810.16;5012121;28;20424;-58
2022/04/28 01:15:10;;;;;;;16.08;7.53;;;;;;;6.48;69.02;102811.09;5015526;28;20099;-58
2022/04/28 01:17:35;;;;;;;15.45;7.47;;;;;;;6.53;68.76;102809.06;5014792;28;20037;-58
2022/04/28 01:20:00;;;;;;;16.45;7.70;;;;;;;6.48;68.77;102816.38;5015759;28;20528;-58
2022/04/28 01:22:26;;;;;;;15.65;7.82;;;;;;;6.36;69.27;102806.50;5014276;28;20045;-59
2022/04/28 01:24:51;;;;;;;17.85;8.20;;;;;;;6.41;69.43;102820.28;5018083;28;20488;-58
2022/04/28 01:27:18;;;;;;;17.70;7.90;;;;;;;6.40;69.03;102823.84;5015985;28;20101;-58
2022/04/28 01:29:43;;;;;;;18.98;7.93;;;;;;;6.42;68.85;102821.97;5013137;28;20469;-58
2022/04/28 01:32:09;;;;;;;16.75;7.70;;;;;;;6.37;68.76;102816.13;5017183;28;20030;-58
2022/04/28 01:34:34;;;;;;;18.75;8.23;;;;;;;6.35;68.72;102810.09;5014922;28;20042;-59
2022/04/28 01:36:59;;;;;;;15.73;7.53;;;;;;;6.35;69.33;102812.72;5014130;28;20033;-58
2022/04/28 01:39:24;;;;;;;16.90;8.05;;;;;;;6.27;69.17;102821.88;5019720;28;20148;-58
2022/04/28 01:41:50;;;;;;;16.40;7.75;;;;;;;6.30;68.97;102813.81;5012899;28;20034;-58
2022/04/28 01:44:15;;;;;;;18.65;7.82;;;;;;;6.29;69.05;102820.03;5013135;28;20053;-58
2022/04/28 01:46:40;;;;;;;17.55;7.65;;;;;;;6.22;69.57;102817.81;5012799;28;20103;-58
2022/04/28 01:49:06;;;;;;;17.33;7.93;;;;;;;6.23;69.66;102812.47;5018149;28;20093;-59
2022/04/28 01:56:58;;;;;;;19.05;8.55;;;;;;;6.21;69.08;102811.66;5009707;28;20045;-58
2022/04/28 01:59:24;;;;;;;18.60;7.90;;;;;;;6.19;69.96;102810.91;5014416;28;20038;-58
2022/04/28 02:01:49;;;;;;;18.00;8.40;;;;;;;5.99;70.64;102815.47;5002009;28;20548;-58
2022/04/28 02:04:15;;;;;;;18.52;8.43;;;;;;;6.01;70.16;102813.56;5020323;28;20468;-58
2022/04/28 02:06:42;;;;;;;16.77;7.90;;;;;;;6.02;70.66;102820.56;5018114;28;20141;-58
2022/04/28 02:09:08;;;;;;;14.45;8.05;;;;;;;5.94;70.59;102817.47;5011698;28;20057;-58
2022/04/28 02:11:33;;;;;;;18.92;8.52;;;;;;;5.93;70.71;102821.88;5005401;28;20064;-59
2022/04/28 02:13:58;;;;;;;17.58;8.18;;;;;;;5.95;70.63;102823.56;5006867;28;20045;-57
2022/04/28 02:16:24;;;;;;;16.30;8.25;;;;;;;5.96;70.64;102822.66;5032107;28;20038;-58
2022/04/28 02:18:49;;;;;;;16.55;7.93;;;;;;;5.99;70.73;102820.72;5013045;28;20045;-58
2022/04/28 02:21:14;;;;;;;18.00;8.60;;;;;;;5.97;70.96;102827.84;5012511;28;20033;-58
2022/04/28 02:23:40;;;;;;;20.30;8.32;;;;;;;5.93;70.55;102823.69;5023445;28;20053;-58
2022/04/28 02:26:05;;;;;;;17.27;8.10;;;;;;;5.94;70.21;102825.38;5018604;28;20469;-58
2022/04/28 02:28:30;;;;;;;16.90;8.27;;;;;;;5.97;70.67;102822.56;5029554;28;20030;-58
2022/04/28 02:30:55;;;;;;;17.88;8.38;;;;;;;5.96;70.36;102820.88;5011961;28;20044;-58
2022/04/28 02:33:21;;;;;;;17.42;8.43;;;;;;;5.92;71.33;102819.31;5012260;28;20449;-58
2022/04/28 02:35:46;;;;;;;20.70;8.90;;;;;;;5.90;70.88;102816.78;5011254;28;20091;-58
2022/04/28 02:38:12;;;;;;;19.08;8.43;;;;;;;5.89;70.73;102819.50;5014067;28;20049;-58
2022/04/28 02:40:37;;;;;;;19.80;8.85;;;;;;;5.79;71.82;102819.97;5014716;28;20035;-57
2022/04/28 02:43:02;;;;;;;17.98;8.80;;;;;;;5.83;71.60;102822.47;5013248;28;20081;-58
2022/04/28 02:45:27;;;;;;;17.23;8.70;;;;;;;5.82;71.91;102818.13;5016963;28;20101;-57
2022/04/28 02:47:53;;;;;;;19.17;8.98;;;;;;;5.79;72.23;102812.06;5015807;28;20026;-58
2022/04/28 02:50:21;;;;;;;17.77;8.10;;;;;;;5.77;71.54;102810.47;5016750;28;20034;-58
2022/04/28 02:52:47;;;;;;;16.17;8.90;;;;;;;5.68;72.55;102817.09;5011442;28;20033;-58
2022/04/28 02:55:12;;;;;;;18.60;9.07;;;;;;;5.71;71.90;102816.91;5014406;28;20030;-58
2022/04/28 02:57:37;;;;;;;19.58;9.27;;;;;;;5.66;72.30;102818.94;5040133;28;20107;-58
2022/04/28 03:00:05;;;;;;;23.48;9.65;;;;;;;5.66;72.70;102813.66;5011624;28;20497;-58
2022/04/28 03:02:31;;;;;;;18.67;9.23;;;;;;;5.61;72.15;102810.41;5017509;28;20121;-58
2022/04/28 03:04:57;;;;;;;19.25;9.00;;;;;;;5.62;72.75;102817.38;5013157;28;20667;-58
2022/04/28 03:12:51;;;;;;;22.77;9.27;;;;;;;5.56;73.31;102812.44;5012915;28;20092;-58
2022/04/28 03:15:17;;;;;;;18.90;9.27;;;;;;;5.64;72.22;102823.44;5011875;28;20042;-58
2022/04/28 03:17:42;;;;;;;20.67;9.02;;;;;;;5.57;72.77;102814.16;5010552;28;20475;-58
2022/04/28 03:20:08;;;;;;;21.13;9.45;;;;;;;5.59;73.01;102812.28;5010243;28;20097;-58
2022/04/28 03:22:36;;;;;;;19.42;9.32;;;;;;;5.57;72.70;102815.00;5010750;28;20078;-58
2022/04/28 03:25:01;;;;;;;19.17;8.70;;;;;;;5.56;72.81;102812.44;5016067;28;20112;-58
2022/04/28 03:27:27;;;;;;;19.75;9.45;;;;;;;5.59;73.21;102815.78;5014015;28;20524;-58
2022/04/28 03:29:52;;;;;;;23.13;9.48;;;;;;;5.59;72.05;102815.78;5011121;28;20061;-58
2022/04/28 03:32:18;;;;;;;18.48;9.00;;;;;;;5.52;73.07;102815.25;5011481;28;20022;-58
2022/04/28 03:34:43;;;;;;;19.00;9.60;;;;;;;5.52;72.71;102817.00;5025504;28;20109;-58
2022/04/28 03:37:08;;;;;;;20.75;9.48;;;;;;;5.50;72.86;102816.25;5019827;28;20039;-58
2022/04/28 03:39:35;;;;;;;18.17;9.27;;;;;;;5.48;73.09;102820.75;5012205;28;20380;-58
2022/04/28 03:42:00;;;;;;;18.85;8.85;;;;;;;5.46;73.23;102823.44;5020592;28;20029;-58
2022/04/28 03:44:25;;;;;;;22.92;10.25;;;;;;;5.36;73.54;102817.81;5017581;28;20100;-58
2022/04/28 03:46:51;;;;;;;21.42;10.30;;;;;;;5.32;73.95;102815.41;5017682;28;20030;-59
2022/04/28 03:49:16;;;;;;;23.20;9.85;;;;;;;5.31;73.53;102816.31;5006159;28;20049;-58
2022/04/28 03:51:41;;;;;;;20.90;10.13;;;;;;;5.23;74.03;102814.94;5019503;28;20045;-58
2022/04/28 03:54:07;;;;;;;25.48;10.20;;;;;;;5.24;73.53;102821.91;5019796;28;20036;-58
2022/04/28 03:56:32;;;;;;;23.27;10.70;;;;;;;5.13;74.45;102826.00;5026412;28;20104;-58
2022/04/28 03:58:59;;;;;;;19.73;10.20;;;;;;;5.05;74.43;102822.00;5020968;28;20034;-58
2022/04/28 04:01:24;;;;;;;22.15;10.35;;;;;;;5.07;74.03;102828.00;5002548;28;20045;-58
2022/04/28 04:03:50;;;;;;;22.75;10.55;;;;;;;5.05;74.61;102831.63;5013195;28;20087;-58
2022/04/28 04:06:15;;;;;;;21.38;10.30;;;;;;;5.03;75.13;102825.63;5011948;28;20036;-58
2022/04/28 04:08:40;;;;;;;21.58;10.55;;;;;;;5.08;74.45;102823.63;5007945;28;20117;-58
2022/04/28 04:11:06;;;;;;;22.00;10.57;;;;;;;5.05;74.78;102835.13;5011905;28;20033;-58
2022/04/28 04:13:31;;;;;;;22.45;10.73;;;;;;;5.05;75.12;102826.38;5013696;28;20396;-58
2022/04/28 04:15:56;;;;;;;21.73;10.82;;;;;;;4.97;75.05;102832.88;5014381;28;20034;-57
2022/04/28 04:18:22;;;;;;;22.13;10.05;;;;;;;5.03;75.16;102831.72;5016981;28;20144;-56
2022/04/28 04:20:47;;;;;;;20.45;10.98;;;;;;;5.06;75.32;102835.97;5022293;28;20037;-58
2022/04/28 04:23:12;;;;;;;19.83;10.73;;;;;;;5.02;75.02;102829.19;5014306;28;20045;-58
2022/04/28 04:25:38;;;;;;;23.33;10.80;;;;;;;5.05;74.64;102829.00;5036050;28;20079;-57
2022/04/28 04:28:04;;;;;;;22.10;10.93;;;;;;;5.04;75.38;102835.19;5018296;28;20021;-58
2022/04/28 04:33:13;;;;;;;20.25;11.13;;;;;;;5.09;75.51;102830.56;5013468;28;20092;-58
2022/04/28 04:35:38;;;;;;;20.35;11.20;;;;;;;5.11;75.36;102840.09;5021328;28;20041;-58
2022/04/28 04:38:03;;;;;;;21.52;11.00;;;;;;;5.10;74.84;102834.91;5014957;28;20041;-58
2022/04/28 04:40:29;;;;;;;21.38;10.82;;;;;;;5.05;75.34;102843.03;5013860;28;20030;-58
2022/04/28 04:42:54;;;;;;;21.73;11.60;;;;;;;5.03;75.10;102836.13;5015592;28;20034;-58
2022/04/28 04:45:19;;;;;;;21.80;11.20;;;;;;;5.04;75.74;102845.72;5017683;28;20498;-58
2022/04/28 04:47:45;;;;;;;20.77;10.57;;;;;;;5.05;75.23;102850.06;5015935;28;20030;-58
2022/04/28 04:50:10;;;;;;;20.60;11.38;;;;;;;5.06;75.18;102841.22;5017775;28;20033;-58
2022/04/28 04:52:35;;;;;;;23.90;11.73;;;;;;;5.05;75.77;102855.31;5014687;28;20030;-58
2022/04/28 04:55:02;;;;;;;21.58;11.20;;;;;;;5.04;75.67;102853.59;5031239;28;20024;-58
2022/04/28 04:57:27;;;;;;;24.25;11.57;;;;;;;5.00;75.34;102857.31;5011117;28;20376;-58
2022/04/28 04:59:53;;;;;;;21.67;11.35;;;;;;;5.03;76.16;102862.44;5013860;28;20038;-59
2022/04/28 05:02:19;;;;;;;24.20;11.47;;;;;;;4.98;75.88;102863.50;5019874;28;20037;-59
2022/04/28 05:04:44;;;;;;;24.52;11.52;;;;;;;5.11;75.43;102860.25;5017207;28;20018;-60
2022/04/28 05:07:09;;;;;;;24.27;11.65;;;;;;;5.15;75.70;102866.22;5009970;28;20421;-59
2022/04/28 05:09:35;;;;;;;21.17;11.52;;;;;;;5.11;75.65;102865.53;5010557;28;20053;-59
2022/04/28 05:12:00;;;;;;;22.77;11.90;;;;;;;5.20;75.29;102870.34;5021950;28;20128;-59
2022/04/28 05:14:25;;;;;;;23.10;11.35;;;;;;;5.24;75.33;102874.50;5016957;28;20072;-57
2022/04/28 05:16:51;;;;;;;20.90;11.13;;;;;;;5.29;75.00;102878.69;5004336;28;20030;-60
2022/04/28 05:19:17;;;;;;;22.98;11.80;;;;;;;5.32;75.29;102881.19;5007477;28;20042;-59
2022/04/28 05:21:42;;;;;;;21.15;11.38;;;;;;;5.30;74.86;102885.66;5003972;28;20440;-59
2022/04/28 05:24:07;;;;;;;23.33;11.85;;;;;;;5.39;74.72;102890.47;5019075;28;20092;-59
2022/04/28 05:26:33;;;;;;;21.02;11.60;;;;;;;5.41;75.19;102880.72;5003810;28;20026;-60
2022/04/28 05:28:58;;;;;;;23.77;11.60;;;;;;;5.44;75.66;102883.22;5004495;28;20037;-55
2022/04/28 05:31:23;;;;;;;20.45;11.70;;;;;;;5.48;75.52;102886.53;5006453;28;20018;-56
2022/04/28 05:33:49;;;;;;;26.65;12.10;;;;;;;5.54;75.09;102893.25;5002918;28;20034;-57
2022/04/28 05:36:15;;;;;;;25.85;12.25;;;;;;;5.58;74.82;102894.81;5002283;28;20030;-58
2022/04/28 05:38:41;;;;;;;21.08;12.25;;;;;;;5.58;75.14;102897.44;5006705;28;20480;-59
2022/04/28 05:41:07;;;;;;;23.58;12.65;;;;;;;5.64;75.25;102899.75;5005058;28;20041;-58
2022/04/28 05:46:19;;;;;;;21.52;12.50;;;;;;;5.76;74.58;102903.53;5004645;28;20143;-57
2022/04/28 05:48:45;;;;;;;22.50;12.18;;;;;;;5.81;74.45;102904.16;5006690;28;20117;-58
2022/04/28 05:51:12;;;;;;;24.02;12.25;;;;;;;5.88;74.61;102908.16;5005923;28;20112;-58
2022/04/28 05:53:37;;;;;;;23.30;12.32;;;;;;;5.91;74.41;102915.06;5004971;28;20107;-58
2022/04/28 05:56:03;;;;;;;26.55;12.93;;;;;;;5.90;74.26;102910.72;5002726;28;20508;-57
2022/04/28 05:58:28;;;;;;;25.70;13.80;;;;;;;5.98;74.71;102916.47;5007348;28;20116;-58
2022/04/28 06:00:54;;;;;;;26.75;12.50;;;;;;;6.05;74.72;102917.00;5004780;28;20432;-59
2022/04/28 06:03:19;;;;;;;25.65;12.85;;;;;;;6.13;74.25;102916.63;5009572;28;20038;-58
2022/04/28 06:05:44;;;;;;;26.10;12.88;;;;;;;6.18;74.14;102925.13;5005479;28;20038;-57
2022/04/28 06:08:10;;;;;;;23.40;12.80;;;;;;;6.21;73.88;102924.97;5007159;28;20197;-58
2022/04/28 06:10:35;;;;;;;21.25;12.35;;;;;;;6.30;74.78;102935.03;5008259;28;20480;-58
2022/04/28 06:13:00;;;;;;;28.98;13.10;;;;;;;6.36;74.59;102928.56;5007265;28;20041;-58
2022/04/28 06:15:27;;;;;;;25.50;13.02;;;;;;;6.45;74.78;102938.63;5004002;28;20026;-59
2022/04/28 06:17:52;;;;;;;24.90;12.90;;;;;;;6.51;73.80;102942.69;5009645;28;20049;-58
2022/04/28 06:20:18;;;;;;;24.73;12.95;;;;;;;6.66;72.79;102935.75;5006773;28;20052;-60
2022/04/28 06:22:44;;;;;;;24.88;12.80;;;;;;;6.70;73.31;102946.97;5009345;28;20137;-59
2022/04/28 06:25:10;;;;;;;26.23;12.93;;;;;;;6.69;72.72;102942.66;5010151;28;20037;-59
2022/04/28 06:27:36;;;;;;;24.92;12.43;;;;;;;6.74;72.72;102948.53;5002473;28;20037;-59
2022/04/28 06:30:02;;;;;;;23.98;13.00;;;;;;;6.80;73.07;102957.88;5006571;28;20537;-59
2022/04/28 06:32:27;;;;;;;22.98;12.15;;;;;;;6.90;72.89;102959.06;5008599;28;20116;-59
2022/04/28 06:34:52;;;;;;;25.77;12.70;;;;;;;6.91;72.31;102955.50;5007413;28;20372;-59
2022/04/28 06:37:18;;;;;;;24.05;12.48;;;;;;;6.96;71.69;102955.25;5005580;28;20026;-59
2022/04/28 06:39:43;;;;;;;24.23;11.98;;;;;;;6.99;72.41;102945.38;5007997;28;20373;-58
2022/04/28 06:42:09;;;;;;;26.33;12.65;;;;;;;7.00;71.77;102947.09;5012317;28;20025;-59
2022/04/28 06:44:36;;;;;;;24.27;12.77;;;;;;;7.12;72.06;102960.53;5020715;28;20163;-59
2022/04/28 06:47:04;;;;;;;27.02;12.35;;;;;;;7.25;70.63;102955.38;5011963;28;20025;-59
2022/04/28 06:49:30;;;;;;;25.25;11.95;;;;;;;7.30;70.84;102955.97;5027178;28;20503;-60
2022/04/28 06:51:55;;;;;;;23.63;12.07;;;;;;;7.35;71.22;102959.22;5014613;28;20056;-59
2022/04/28 06:54:20;;;;;;;22.83;12.10;;;;;;;7.42;71.43;102957.09;5012618;28;20034;-59
2022/04/28 06:56:47;;;;;;;23.65;12.13;;;;;;;7.53;70.89;102956.47;5012646;28;20038;-59
2022/04/28 06:59:12;;;;;;;22.98;11.82;;;;;;;7.62;69.59;102966.50;5018872;28;20073;-59
2022/04/28 07:01:37;;;;;;;26.95;11.75;;;;;;;7.73;70.31;102965.00;5012387;28;20107;-59
2022/04/28 07:04:03;;;;;;;25.17;12.20;;;;;;;7.81;70.12;102962.78;5015350;28;20247;-59
2022/04/28 07:06:28;;;;;;;24.73;11.88;;;;;;;7.93;69.71;102969.09;5026852;28;20049;-59
2022/04/28 07:08:53;;;;;;;23.98;12.13;;;;;;;8.03;69.92;102969.41;5009843;28;20034;-59
2022/04/28 07:11:18;;;;;;;25.25;11.75;;;;;;;8.13;68.27;102981.13;5014644;28;20652;-59
2022/04/28 07:13:44;;;;;;;23.23;11.30;;;;;;;8.16;68.07;102975.66;5006882;28;20052;-59
2022/04/28 07:16:09;;;;;;;20.15;10.90;;;;;;;8.24;67.31;102982.28;4996987;28;20036;-59
2022/04/28 07:18:34;;;;;;;24.55;11.18;;;;;;;8.27;67.84;102982.06;4997025;28;20025;-59
2022/04/28 07:21:01;;;;;;;23.38;11.05;;;;;;;8.32;68.37;102986.16;4996484;28;20116;-60
2022/04/28 07:23:26;;;;;;;25.23;11.65;;;;;;;8.40;67.55;102979.53;4999380;28;20147;-59
2022/04/28 07:25:52;;;;;;;25.23;11.82;;;;;;;8.50;67.25;102998.34;5020218;28;20144;-59
2022/04/28 07:28:17;;;;;;;22.45;11.45;;;;;;;8.55;66.47;103001.59;5008573;28;20034;-59
2022/04/28 07:30:42;;;;;;;23.40;11.27;;;;;;;8.61;67.02;102998.56;5010850;28;20092;-59
2022/04/28 07:33:08;;;;;;;24.38;11.27;;;;;;;8.68;65.77;102993.75;5006721;28;20638;-59
2022/04/28 07:35:34;;;;;;;21.30;11.32;;;;;;;8.69;66.38;103004.22;5017366;28;20041;-59
2022/04/28 07:37:59;;;;;;;21.95;11.15;;;;;;;8.77;66.01;103003.75;5005733;28;20056;-60
2022/04/28 07:40:25;;;;;;;23.50;10.98;;;;;;;8.89;65.58;103007.44;5001948;28;20035;-59
2022/04/28 07:42:50;;;;;;;26.45;11.68;;;;;;;8.94;66.27;103002.66;5000230;28;20042;-59
2022/04/28 07:45:15;;;;;;;22.63;11.52;;;;;;;9.04;66.44;103007.38;5010037;28;20473;-59
2022/04/28 07:47:41;;;;;;;25.02;11.95;;;;;;;9.07;64.62;103008.03;5005970;28;20030;-59
2022/04/28 07:50:06;;;;;;;26.35;11.27;;;;;;;9.05;64.26;103014.38;5008970;28;20419;-59
2022/04/28 07:52:32;;;;;;;24.92;12.00;;;;;;;9.13;66.31;103017.41;5019709;28;20069;-59
2022/04/28 07:54:57;;;;;;;24.95;10.80;;;;;;;9.24;64.58;103017.53;5015875;28;20072;-59
2022/04/28 07:57:23;;;;;;;26.80;12.38;;;;;;;9.27;64.72;103019.13;5020512;28;20056;-60
2022/04/28 07:59:49;;;;;;;23.33;11.68;;;;;;;9.36;64.78;103018.56;5016720;28;20022;-59
2022/04/28 08:02:15;;;;;;;26.60;11.65;;;;;;;9.45;63.20;103019.75;5010638;28;20041;-59
2022/04/28 08:04:41;;;;;;;25.13;12.38;;;;;;;9.46;63.67;103020.59;5010955;28;20038;-59
2022/04/28 08:07:06;;;;;;;24.13;11.30;;;;;;;9.51;64.56;103022.00;5010921;28;20033;-59
2022/04/28 08:09:32;;;;;;;23.63;11.27;;;;;;;9.58;63.78;103026.91;5008351;28;20388;-59
2022/04/28 08:11:57;;;;;;;22.55;10.90;;;;;;;9.67;63.66;103021.84;5010503;28;20034;-59
2022/04/28 08:14:25;;;;;;;22.48;10.93;;;;;;;9.78;62.94;103021.13;5005476;28;20113;-59
2022/04/28 08:16:52;;;;;;;25.75;10.77;;;;;;;9.83;62.22;103029.59;5011010;28;20030;-59
2022/04/28 08:19:19;;;;;;;19.88;9.98;;;;;;;9.89;61.22;103030.16;5017133;28;20038;-59
2022/04/28 08:21:48;;;;;;;25.38;11.25;;;;;;;9.89;61.76;103032.81;5005011;28;20022;-59
2022/04/28 08:24:13;;;;;;;24.63;11.35;;;;;;;9.93;61.58;103036.97;5012747;28;20483;-59
2022/04/28 08:26:39;;;;;;;21.00;10.65;;;;;;;10.02;61.98;103036.31;5018793;28;20122;-59
2022/04/28 08:29:04;;;;;;;22.33;10.82;;;;;;;10.08;61.48;103035.91;5020643;28;20100;-59
2022/04/28 08:31:30;;;;;;;22.02;10.85;;;;;;;10.09;60.72;103037.63;5012479;28;20084;-59
2022/04/28 08:33:55;;;;;;;23.23;10.50;;;;;;;10.15;61.71;103046.09;5005504;28;20441;-59
2022/04/28 08:36:20;;;;;;;23.95;10.02;;;;;;;10.21;58.43;103035.06;5010574;28;20376;-60
2022/04/28 08:38:46;;;;;;;19.77;10.90;;;;;;;10.28;62.33;103041.69;5004237;28;20042;-59
2022/04/28 08:41:16;;;;;;;23.65;10.05;;;;;;;10.39;60.70;103042.72;5009631;28;20030;-59
2022/04/28 08:43:42;;;;;;;22.33;10.82;;;;;;;10.38;59.64;103049.84;5007004;28;20033;-59
2022/04/28 08:48:55;;;;;;;21.45;10.63;;;;;;;10.56;59.84;103039.78;5010497;28;20434;-60
2022/04/28 08:51:26;;;;;;;22.80;10.75;;;;;;;10.69;59.91;103044.22;5007587;28;20031;-59
2022/04/28 08:53:53;;;;;;;23.52;11.52;;;;;;;10.63;58.89;103045.50;5004743;28;20025;-59
2022/04/28 08:56:20;;;;;;;21.10;11.82;;;;;;;10.75;61.19;103049.09;5007499;28;20152;-58
2022/04/28 08:58:46;;;;;;;21.63;11.45;;;;;;;10.78;59.97;103046.25;5005661;28;20384;-59
2022/04/28 09:01:13;;;;;;;24.20;10.82;;;;;;;10.81;58.81;103035.38;5009182;28;20616;-59
2022/04/28 09:03:39;;;;;;;23.08;11.13;;;;;;;10.90;59.72;103037.41;5002560;28;20026;-59
2022/04/28 09:06:20;;;;;;;23.77;11.48;;;;;;;10.97;60.97;103035.19;5006845;28;20490;-59
2022/04/28 09:08:46;;;;;;;20.17;10.60;;;;;;;10.92;57.80;103044.41;5013618;28;20053;-57
2022/04/28 09:11:26;;;;;;;21.42;11.05;;;;;;;11.03;59.96;103044.50;5010829;28;20030;-60
2022/04/28 09:14:15;;;;;;;27.38;11.73;;;;;;;11.07;59.46;103038.00;5010810;28;20439;-57
2022/04/28 09:16:42;;;;;;;22.05;11.75;;;;;;;11.18;58.56;103050.50;5009743;28;20046;-57
2022/04/28 09:19:19;;;;;;;22.33;11.07;;;;;;;11.19;57.69;103027.47;5006841;28;20025;-59
2022/04/28 09:21:46;;;;;;;25.73;11.85;;;;;;;11.21;56.40;103049.44;5004792;28;20033;-59
2022/04/28 09:24:13;;;;;;;25.15;11.75;;;;;;;11.17;55.38;103036.38;5007410;28;20049;-57
2022/04/28 09:26:40;;;;;;;23.55;11.48;;;;;;;11.25;59.31;103035.81;5015709;28;20534;-56
2022/04/28 09:29:09;;;;;;;21.63;11.55;;;;;;;11.29;56.83;103031.97;5007867;28;20032;-56
2022/04/28 09:31:37;;;;;;;19.73;10.75;;;;;;;11.27;56.21;103027.75;5005934;28;20030;-57
2022/04/28 09:34:16;;;;;;;23.02;11.18;;;;;;;11.37;56.53;103027.91;5005595;28;20053;-56
2022/04/28 09:36:43;;;;;;;23.40;11.20;;;;;;;11.46;55.98;103031.69;5005075;28;20030;-56
2022/04/28 09:39:13;;;;;;;22.08;11.00;;;;;;;11.56;56.56;103028.25;5009316;28;20068;-56
2022/04/28 09:44:24;;;;;;;22.80;11.23;;;;;;;11.64;55.72;103026.84;5007104;28;20045;-56
2022/04/28 09:46:52;;;;;;;20.42;10.57;;;;;;;11.76;55.23;103020.59;5009043;28;20025;-56
2022/04/28 09:49:21;;;;;;;20.52;10.88;;;;;;;11.73;53.04;103023.47;5006407;28;20534;-56
2022/04/28 09:51:46;;;;;;;17.33;10.48;;;;;;;11.73;54.55;103020.00;5005983;28;20025;-56
2022/04/28 09:54:15;;;;;;;20.38;10.68;;;;;;;11.91;55.50;103026.56;5013227;28;20014;-56
2022/04/28 09:56:42;;;;;;;19.70;10.48;;;;;;;11.88;53.49;103015.34;5009124;28;20081;-56
2022/04/28 09:59:11;;;;;;;22.15;10.57;;;;;;;11.90;53.58;103014.22;5012151;28;20053;-56
2022/04/28 10:01:38;;;;;;;17.33;10.27;;;;;;;12.12;55.39;103020.59;5013869;28;20038;-57
2022/04/28 10:04:07;;;;;;;19.42;10.05;;;;;;;12.15;53.34;103016.84;5009506;28;20034;-56
2022/04/28 10:06:36;;;;;;;19.55;10.15;;;;;;;12.14;52.94;103010.69;5014140;28;20468;-57
2022/04/28 10:09:09;;;;;;;20.50;9.45;;;;;;;12.18;53.05;103001.50;5011042;28;20464;-57
2022/04/28 10:11:35;;;;;;;18.13;9.95;;;;;;;12.34;52.17;103005.66;5001554;28;20472;-57
2022/04/28 10:14:00;;;;;;;22.52;9.82;;;;;;;12.43;52.06;103009.41;5004238;28;20045;-56
2022/04/28 10:16:26;;;;;;;20.13;9.68;;;;;;;12.48;50.85;103001.91;5004100;28;20030;-56
2022/04/28 10:19:20;;;;;;;16.20;9.43;;;;;;;12.42;52.15;103003.22;5006919;28;20025;-57
2022/04/28 10:21:52;;;;;;;19.63;9.77;;;;;;;12.56;50.40;103001.28;5005671;28;20038;-56
2022/04/28 10:32:59;;;;;;;23.00;9.75;;;;;;;12.89;53.11;103000.41;5011000;28;20104;-56
2022/04/28 10:35:50;;;;;;;20.25;9.52;;;;;;;13.00;52.52;103002.22;5005513;28;20033;-56
2022/04/28 10:38:34;;;;;;;21.30;10.13;;;;;;;13.04;52.41;102998.31;5006022;28;20050;-56
2022/04/28 10:41:03;;;;;;;17.73;10.10;;;;;;;13.04;51.24;102992.97;5012255;28;20044;-57
2022/04/28 10:43:31;;;;;;;16.30;9.43;;;;;;;13.13;49.98;102995.88;5003398;28;20063;-56
2022/04/28 10:45:58;;;;;;;17.95;9.70;;;;;;;13.04;50.06;102998.31;5000503;28;20033;-58
2022/04/28 10:48:29;;;;;;;20.10;9.93;;;;;;;13.20;51.88;102986.41;5012192;28;20745;-59
2022/04/28 10:51:01;;;;;;;21.80;11.48;;;;;;;13.14;49.27;102986.91;5009059;28;20026;-59
2022/04/28 10:53:27;;;;;;;22.38;10.50;;;;;;;13.27;51.98;102986.78;5018100;28;20044;-58
2022/04/28 10:55:53;;;;;;;22.17;10.60;;;;;;;13.22;49.35;102983.63;5017178;28;20026;-58
2022/04/28 10:58:23;;;;;;;18.98;10.00;;;;;;;13.39;50.98;102985.75;5011973;28;20022;-58
2022/04/28 11:00:53;;;;;;;19.00;9.95;;;;;;;13.53;50.18;102981.13;5021705;28;20040;-58
2022/04/28 11:03:50;;;;;;;16.77;9.13;;;;;;;13.61;50.24;102983.13;5014857;28;20037;-59
2022/04/28 11:06:21;;;;;;;20.50;10.70;;;;;;;13.68;49.10;102974.47;4998562;28;20033;-58
2022/04/28 11:08:55;;;;;;;18.85;10.48;;;;;;;13.37;48.84;102986.84;5003934;28;20038;-57
2022/04/28 11:11:24;;;;;;;19.10;10.60;;;;;;;13.56;49.68;102972.84;5004983;28;20026;-58
2022/04/28 11:13:57;;;;;;;20.13;10.70;;;;;;;13.65;51.42;102972.09;5005285;28;20041;-58
2022/04/28 11:16:22;;;;;;;;;;;;;;;13.75;51.29;102964.16;5009004;28;20944;-59
2022/04/28 11:18:48;;;;;;;17.88;9.43;;;;;;;13.88;48.62;102971.97;5000706;28;19913;-58
2022/04/28 11:21:15;;;;;;;18.55;10.20;;;;;;;14.04;49.46;102967.94;5007771;28;20033;-59
2022/04/28 11:23:46;;;;;;;17.98;10.23;;;;;;;14.13;48.80;102969.84;5009032;28;20049;-59
2022/04/28 11:26:12;;;;;;;19.70;10.77;;;;;;;13.98;48.16;102969.34;5002258;28;20037;-58
2022/04/28 11:28:39;;;;;;;18.05;10.77;;;;;;;14.03;48.21;102971.59;5015926;28;20380;-58
2022/04/28 11:31:11;;;;;;;18.58;11.15;;;;;;;14.12;48.10;102966.31;5013343;28;20037;-59
2022/04/28 11:33:41;;;;;;;18.92;10.50;;;;;;;14.11;47.45;102953.97;5018868;28;20634;-58
2022/04/28 11:36:23;;;;;;;18.17;10.52;;;;;;;14.33;48.52;102952.09;5018815;28;20030;-57
2022/04/28 11:38:51;;;;;;;20.23;11.40;;;;;;;14.38;47.41;102965.88;5014104;28;20037;-58
2022/04/28 11:41:16;;;;;;;21.60;11.80;;;;;;;14.32;47.63;102961.09;5010415;28;20421;-58
2022/04/28 11:43:41;;;;;;;20.00;12.02;;;;;;;14.49;48.36;102961.41;5010421;28;20030;-59
2022/04/28 11:46:07;;;;;;;19.50;12.13;;;;;;;14.47;47.94;102958.03;5011556;28;20118;-59
2022/04/28 11:48:34;;;;;;;20.80;12.23;;;;;;;14.49;48.84;102964.06;5012003;28;20101;-59
2022/04/28 11:51:05;;;;;;;18.45;11.93;;;;;;;14.56;50.22;102961.72;5019752;28;20017;-58